Time;durP1;ratioP1;P1;durP2;ratioP2;P2;SDS_P1;SDS_P2;PMS_P1;PMS_P2;Temp;Humidity;BMP_temperature;BMP_pressure;BME280_temperature;BME280_humidity;BME280_pressure;Samples;Min_cycle;Max_cycle;Signal;HPM_P1;HPM_P2
2021/08/03 00:00:01;;;;;;;1.90;1.55;;;;;;;13.21;90.88;100573.66;3555118;40;20085;-44
2021/08/03 00:02:29;;;;;;;4.15;2.28;;;;;;;13.14;90.97;100574.44;3547330;40;20435;-43
2021/08/03 00:04:58;;;;;;;2.17;1.63;;;;;;;13.30;90.08;100574.66;3557041;40;20050;-43
2021/08/03 00:07:27;;;;;;;2.78;1.90;;;;;;;13.28;89.34;100571.22;3556322;40;20069;-44
2021/08/03 00:09:56;;;;;;;4.07;1.83;;;;;;;13.52;88.87;100576.66;3555692;40;20042;-43
2021/08/03 00:12:24;;;;;;;5.78;2.20;;;;;;;13.33;89.98;100577.28;3554877;40;20053;-44
2021/08/03 00:14:53;;;;;;;3.70;1.77;;;;;;;13.03;90.85;100568.25;3555860;40;20049;-47
2021/08/03 00:17:24;;;;;;;4.65;1.60;;;;;;;12.97;91.97;100563.91;3555516;40;20585;-46
2021/08/03 00:19:53;;;;;;;4.15;1.90;;;;;;;13.18;90.88;100583.91;3555480;40;20086;-44
2021/08/03 00:22:23;;;;;;;6.60;2.38;;;;;;;12.95;91.70;100575.91;3614898;23;20078;-44
2021/08/03 00:24:51;;;;;;;3.70;1.40;;;;;;;12.98;92.32;100575.06;3565227;40;20160;-47
2021/08/03 00:27:19;;;;;;;2.22;1.52;;;;;;;13.28;91.85;100578.94;3565715;40;20057;-47
2021/08/03 00:29:46;;;;;;;5.65;1.73;;;;;;;13.29;91.04;100583.22;3565389;40;20089;-45
2021/08/03 00:32:13;;;;;;;2.72;1.55;;;;;;;13.27;91.54;100579.78;3565157;40;20060;-44
2021/08/03 00:34:40;;;;;;;7.88;1.88;;;;;;;12.97;92.65;100574.19;3565242;40;20057;-44
2021/08/03 00:37:09;;;;;;;2.30;1.65;;;;;;;13.08;92.62;100576.94;3564821;40;20532;-44
2021/08/03 00:39:37;;;;;;;3.38;1.70;;;;;;;13.05;92.96;100571.75;3565054;40;20055;-46
2021/08/03 00:42:05;;;;;;;1.67;1.58;;;;;;;13.32;91.18;100571.28;3565282;40;20049;-44
2021/08/03 00:44:36;;;;;;;2.67;1.65;;;;;;;13.21;91.48;100562.50;3565282;40;20081;-44
2021/08/03 00:47:04;;;;;;;2.95;1.50;;;;;;;13.05;92.46;100566.59;3564988;40;20077;-44
2021/08/03 00:49:31;;;;;;;3.70;1.75;;;;;;;12.81;93.14;100571.41;3562456;40;20053;-44
2021/08/03 00:51:58;;;;;;;2.80;1.70;;;;;;;12.68;94.68;100575.47;3565196;40;20077;-44
2021/08/03 00:54:25;;;;;;;2.67;1.50;;;;;;;12.58;95.71;100573.63;3565114;40;20113;-45
2021/08/03 00:56:52;;;;;;;2.53;1.63;;;;;;;12.85;94.40;100570.56;3565235;40;20341;-44
2021/08/03 00:59:19;;;;;;;3.10;1.33;;;;;;;12.92;93.61;100577.53;3564811;40;20057;-44
2021/08/03 01:01:46;;;;;;;1.48;1.38;;;;;;;12.79;94.37;100573.06;3564797;40;20080;-46
2021/08/03 01:04:15;;;;;;;3.22;1.83;;;;;;;12.36;96.44;100563.00;3565094;40;20033;-44
2021/08/03 01:06:47;;;;;;;2.47;1.50;;;;;;;12.24;97.71;100563.66;3565141;40;20089;-44
2021/08/03 01:09:33;;;;;;;3.00;2.00;;;;;;;12.18;99.41;100562.69;3564901;40;20081;-47
2021/08/03 01:12:35;;;;;;;4.32;1.90;;;;;;;12.63;96.94;100561.72;3565176;40;20335;-44
2021/08/03 01:15:17;;;;;;;4.45;1.70;;;;;;;12.90;95.37;100567.25;3562184;40;20081;-44
2021/08/03 01:17:47;;;;;;;2.30;1.50;;;;;;;12.80;95.48;100567.09;3564820;40;20045;-44
2021/08/03 01:20:48;;;;;;;4.22;2.00;;;;;;;12.46;97.01;100569.16;3565350;40;20057;-44
2021/08/03 01:23:37;;;;;;;2.75;1.63;;;;;;;12.50;97.41;100565.78;3559439;40;20441;-45
2021/08/03 01:26:27;;;;;;;5.05;1.80;;;;;;;12.10;99.14;100561.69;3565076;40;20310;-47
2021/08/03 01:28:58;;;;;;;3.72;1.70;;;;;;;11.94;100.00;100558.84;3564898;40;20065;-44
2021/08/03 01:31:28;;;;;;;5.88;2.47;;;;;;;12.74;97.93;100565.28;3564814;40;20936;-44
2021/08/03 01:34:11;;;;;;;4.03;1.92;;;;;;;12.82;95.72;100575.69;3565017;40;20493;-44
2021/08/03 01:36:41;;;;;;;3.05;1.95;;;;;;;12.49;97.55;100580.34;3565001;40;20357;-44
2021/08/03 01:39:09;;;;;;;1.98;1.77;;;;;;;12.50;98.02;100578.63;3564893;40;20105;-44
2021/08/03 01:41:37;;;;;;;2.10;1.83;;;;;;;12.34;99.00;100579.19;3564852;40;20100;-44
2021/08/03 01:44:05;;;;;;;3.00;1.88;;;;;;;12.27;98.79;100577.38;3565511;40;20154;-44
2021/08/03 01:46:36;;;;;;;2.50;1.50;;;;;;;12.45;99.77;100583.69;3564793;40;20045;-43
2021/08/03 01:49:03;;;;;;;3.22;2.10;;;;;;;12.26;99.86;100584.22;3564700;40;20053;-44
2021/08/03 01:51:31;;;;;;;3.33;2.08;;;;;;;12.34;99.80;100585.22;3564668;40;20038;-45
2021/08/03 01:53:59;;;;;;;7.57;1.98;;;;;;;12.20;100.00;100589.25;3564783;40;20052;-44
2021/08/03 01:56:29;;;;;;;3.47;2.13;;;;;;;12.21;100.00;100594.41;3565173;40;20451;-44
2021/08/03 01:58:58;;;;;;;3.78;2.15;;;;;;;12.23;99.98;100604.72;3564961;40;20105;-44
2021/08/03 02:01:27;;;;;;;4.20;2.35;;;;;;;11.98;100.00;100601.72;3564586;40;20124;-44
2021/08/03 02:03:56;;;;;;;5.25;2.20;;;;;;;11.88;100.00;100601.53;3564746;40;20061;-46
2021/08/03 02:06:27;;;;;;;4.15;2.30;;;;;;;11.75;100.00;100597.81;3564961;40;20100;-44
2021/08/03 02:08:59;;;;;;;3.90;2.55;;;;;;;11.65;100.00;100601.91;3564705;40;20081;-44
2021/08/03 02:11:31;;;;;;;5.70;2.40;;;;;;;11.72;100.00;100601.16;3564735;40;20136;-44
2021/08/03 02:13:58;;;;;;;2.97;2.28;;;;;;;12.25;100.00;100595.34;3564309;40;20064;-44
2021/08/03 02:16:25;;;;;;;4.80;2.47;;;;;;;12.68;99.41;100608.88;3564789;40;20478;-47
2021/08/03 02:18:53;;;;;;;2.40;2.20;;;;;;;12.54;99.25;100603.53;3564585;40;20057;-46
2021/08/03 02:21:22;;;;;;;4.13;2.28;;;;;;;12.78;98.32;100603.03;3564870;40;20077;-44
2021/08/03 02:23:51;;;;;;;3.00;2.30;;;;;;;12.47;99.71;100601.69;3564655;40;20077;-44
2021/08/03 02:26:18;;;;;;;4.13;2.28;;;;;;;12.67;98.94;100600.31;3564469;40;20354;-44
2021/08/03 02:28:45;;;;;;;4.68;2.55;;;;;;;12.68;98.82;100609.75;3564562;40;20097;-47
2021/08/03 02:31:50;;;;;;;3.33;2.60;;;;;;;12.66;99.23;100615.69;3564541;40;20077;-44
2021/08/03 02:34:27;;;;;;;3.65;2.50;;;;;;;12.29;100.00;100615.06;3564622;40;20403;-45
2021/08/03 02:37:09;;;;;;;4.50;2.35;;;;;;;12.40;100.00;100612.72;3564513;40;20082;-45
2021/08/03 02:39:38;;;;;;;3.85;2.45;;;;;;;12.67;98.87;100610.59;3564259;40;20049;-47
2021/08/03 02:42:08;;;;;;;3.85;2.47;;;;;;;12.45;100.00;100619.66;3564968;40;20443;-46
2021/08/03 02:44:38;;;;;;;3.58;2.60;;;;;;;12.28;100.00;100615.06;3565134;40;20369;-44
2021/08/03 02:47:19;;;;;;;9.43;2.40;;;;;;;12.39;100.00;100618.69;3564598;40;20349;-45
2021/08/03 02:49:50;;;;;;;3.67;3.05;;;;;;;12.69;99.24;100614.03;3564340;40;20089;-44
2021/08/03 02:52:18;;;;;;;3.50;2.38;;;;;;;12.46;100.00;100615.38;3563992;40;20415;-44
2021/08/03 02:54:58;;;;;;;4.72;2.90;;;;;;;12.60;99.53;100619.03;3564426;40;20853;-44
2021/08/03 02:57:27;;;;;;;5.32;2.83;;;;;;;12.83;99.31;100624.53;3564326;40;20470;-44
2021/08/03 03:00:00;;;;;;;4.63;2.33;;;;;;;12.60;99.74;100633.56;3563986;40;20350;-44
2021/08/03 03:02:30;;;;;;;2.97;2.20;;;;;;;12.78;99.45;100628.75;3564285;40;20381;-46
2021/08/03 03:05:04;;;;;;;3.50;2.22;;;;;;;12.66;99.20;100637.13;3564438;40;20139;-44
2021/08/03 03:07:39;;;;;;;5.18;2.20;;;;;;;12.69;99.64;100626.03;3558361;40;20081;-44
2021/08/03 03:10:13;;;;;;;3.90;2.28;;;;;;;12.66;98.90;100632.00;3564430;40;20336;-44
2021/08/03 03:12:45;;;;;;;4.72;2.55;;;;;;;12.43;100.00;100626.47;3564393;40;20046;-47
2021/08/03 03:15:16;;;;;;;2.55;2.33;;;;;;;12.38;100.00;100624.63;3563980;40;20059;-44
2021/08/03 03:17:45;;;;;;;3.25;1.90;;;;;;;12.53;100.00;100631.78;3564129;40;20086;-45
2021/08/03 03:20:13;;;;;;;3.55;2.10;;;;;;;12.87;98.63;100628.88;3564118;40;20081;-44
2021/08/03 03:22:43;;;;;;;5.90;2.33;;;;;;;12.53;99.78;100624.91;3564212;40;20045;-44
2021/08/03 03:25:14;;;;;;;4.63;2.17;;;;;;;12.82;98.53;100629.66;3564146;40;20085;-45
2021/08/03 03:27:43;;;;;;;2.53;2.03;;;;;;;13.28;94.25;100623.50;3567429;40;20117;-44
2021/08/03 03:30:15;;;;;;;3.92;1.98;;;;;;;13.20;95.81;100614.78;3564161;40;20081;-44
2021/08/03 03:32:45;;;;;;;2.97;1.73;;;;;;;13.09;96.76;100622.34;3564204;40;20333;-45
2021/08/03 03:35:19;;;;;;;4.47;2.00;;;;;;;12.92;96.80;100611.81;3564349;40;20085;-44
2021/08/03 03:37:49;;;;;;;3.95;1.80;;;;;;;12.80;98.57;100609.06;3564022;40;20056;-47
2021/08/03 03:40:21;;;;;;;4.65;2.03;;;;;;;13.05;96.83;100622.28;3564191;40;20101;-47
2021/08/03 03:42:52;;;;;;;2.00;1.80;;;;;;;13.21;96.25;100624.22;3564203;40;20085;-47
2021/08/03 03:45:19;;;;;;;2.42;2.17;;;;;;;13.12;96.36;100624.94;3563861;40;20053;-44
2021/08/03 03:48:09;;;;;;;3.78;2.40;;;;;;;12.91;97.87;100622.09;3564163;40;20061;-47
2021/08/03 03:50:53;;;;;;;4.05;2.30;;;;;;;12.76;98.62;100630.44;3564072;40;20061;-44
2021/08/03 03:53:22;;;;;;;4.82;1.95;;;;;;;13.09;97.04;100627.50;3563990;40;20049;-47
2021/08/03 03:56:01;;;;;;;4.28;2.50;;;;;;;12.90;97.57;100633.22;3564049;40;20049;-44
2021/08/03 03:58:33;;;;;;;4.22;2.17;;;;;;;12.75;99.06;100633.81;3563736;40;20089;-44
2021/08/03 04:01:00;;;;;;;3.63;2.38;;;;;;;13.08;96.81;100627.47;3563835;40;20085;-47
2021/08/03 04:03:30;;;;;;;4.07;2.20;;;;;;;13.10;96.45;100636.06;3563888;40;20056;-49
2021/08/03 04:05:58;;;;;;;2.50;2.30;;;;;;;12.94;97.44;100630.72;3564113;40;20072;-46
2021/08/03 04:08:25;;;;;;;3.25;2.05;;;;;;;12.98;98.25;100632.47;3563164;40;20057;-45
2021/08/03 04:10:59;;;;;;;4.65;2.33;;;;;;;12.94;97.77;100633.28;3564996;40;20055;-44
2021/08/03 04:13:26;;;;;;;3.85;2.42;;;;;;;13.14;97.16;100632.72;3573572;40;20089;-44
2021/08/03 04:15:53;;;;;;;3.05;2.15;;;;;;;13.06;97.40;100624.00;3565710;40;20085;-47
2021/08/03 04:18:20;;;;;;;5.35;2.83;;;;;;;13.07;97.11;100625.72;3565345;40;20625;-49
2021/08/03 04:20:47;;;;;;;7.47;2.60;;;;;;;13.00;97.31;100635.06;3565291;40;20094;-45
2021/08/03 04:23:14;;;;;;;4.43;2.50;;;;;;;13.13;97.51;100637.00;3565442;40;20049;-46
2021/08/03 04:25:42;;;;;;;3.90;2.40;;;;;;;13.45;95.35;100639.13;3565315;40;20073;-45
2021/08/03 04:28:09;;;;;;;3.45;2.05;;;;;;;13.48;96.00;100652.06;3565172;40;20100;-47
2021/08/03 04:30:36;;;;;;;4.10;2.25;;;;;;;13.69;95.06;100654.91;3565748;40;20061;-45
2021/08/03 04:33:03;;;;;;;6.68;2.58;;;;;;;13.81;94.00;100661.91;3565525;40;20417;-44
2021/08/03 04:35:30;;;;;;;5.43;2.58;;;;;;;13.69;94.81;100660.06;3565265;40;20089;-45
2021/08/03 04:37:57;;;;;;;3.70;2.50;;;;;;;13.75;94.37;100659.25;3565426;40;20080;-44
2021/08/03 04:40:24;;;;;;;5.20;2.47;;;;;;;13.72;93.62;100654.94;3565239;40;20089;-44
2021/08/03 04:42:51;;;;;;;4.80;2.53;;;;;;;13.62;93.99;100647.09;3565078;40;20073;-45
2021/08/03 04:45:19;;;;;;;7.10;2.92;;;;;;;13.70;95.71;100654.06;3565378;40;20086;-44
2021/08/03 04:47:49;;;;;;;6.13;2.47;;;;;;;13.76;95.98;100661.00;3565201;40;20439;-45
2021/08/03 04:50:24;;;;;;;4.57;2.20;;;;;;;13.66;95.43;100654.00;3565210;40;20060;-46
2021/08/03 04:52:52;;;;;;;2.72;1.92;;;;;;;13.44;96.10;100646.00;3565168;40;20105;-45
2021/08/03 04:55:19;;;;;;;4.15;2.50;;;;;;;13.58;96.82;100651.31;3565250;40;20053;-45
2021/08/03 04:57:47;;;;;;;3.95;2.30;;;;;;;13.55;97.17;100656.44;3565119;40;20112;-46
2021/08/03 05:00:15;;;;;;;3.65;2.55;;;;;;;13.54;97.62;100665.00;3565225;40;20135;-45
2021/08/03 05:02:43;;;;;;;4.25;2.90;;;;;;;13.82;96.38;100666.22;3565322;40;20097;-46
2021/08/03 05:05:12;;;;;;;4.15;2.45;;;;;;;14.09;94.67;100660.50;3565301;40;20378;-46
2021/08/03 05:07:39;;;;;;;4.88;2.20;;;;;;;14.12;91.68;100662.25;3565195;40;20116;-46
2021/08/03 05:10:13;;;;;;;2.95;2.60;;;;;;;13.89;94.84;100662.00;3565682;40;20147;-45
2021/08/03 05:12:40;;;;;;;6.20;2.63;;;;;;;13.74;98.40;100658.41;3565159;40;20070;-45
2021/08/03 05:15:08;;;;;;;6.95;2.70;;;;;;;13.89;96.46;100657.72;3567319;40;20045;-48
2021/08/03 05:17:35;;;;;;;4.00;2.40;;;;;;;13.74;96.88;100655.84;3568904;40;20339;-48
2021/08/03 05:20:03;;;;;;;3.30;2.22;;;;;;;13.72;97.04;100647.22;3565015;40;20396;-45
2021/08/03 05:22:30;;;;;;;20.92;5.93;;;;;;;14.01;98.68;100650.16;3565050;40;20045;-44
2021/08/03 05:24:58;;;;;;;21.25;4.97;;;;;;;14.03;98.38;100655.31;3564863;40;20076;-48
2021/08/03 05:27:26;;;;;;;8.45;3.30;;;;;;;14.65;91.62;100664.50;3564855;40;20203;-45
2021/08/03 05:29:53;;;;;;;4.30;2.65;;;;;;;14.70;90.39;100665.44;3564870;40;20049;-45
2021/08/03 05:32:20;;;;;;;18.02;4.80;;;;;;;14.59;92.84;100669.63;3564965;40;20085;-44
2021/08/03 05:34:47;;;;;;;15.27;5.03;;;;;;;14.44;95.56;100660.00;3565072;40;20053;-44
2021/08/03 05:37:14;;;;;;;2.95;2.42;;;;;;;14.68;91.28;100656.81;3564687;40;20058;-47
2021/08/03 05:39:41;;;;;;;13.02;3.83;;;;;;;14.38;93.99;100665.13;3565089;40;20057;-45
2021/08/03 05:42:09;;;;;;;5.40;3.10;;;;;;;14.46;95.10;100666.03;3564987;40;20353;-44
2021/08/03 05:44:36;;;;;;;3.35;2.33;;;;;;;14.77;92.55;100665.47;3565295;40;20053;-45
2021/08/03 05:47:03;;;;;;;2.42;2.22;;;;;;;14.72;93.34;100676.63;3564999;40;20101;-45
2021/08/03 05:49:30;;;;;;;4.53;2.50;;;;;;;14.59;93.92;100672.19;3564880;40;20079;-49
2021/08/03 05:52:00;;;;;;;5.78;2.40;;;;;;;14.75;92.87;100674.94;3564776;40;20109;-45
2021/08/03 05:54:28;;;;;;;6.40;2.83;;;;;;;15.03;89.93;100677.72;3564979;40;20065;-45
2021/08/03 05:56:55;;;;;;;2.60;2.30;;;;;;;14.73;93.25;100670.59;3565097;40;20121;-45
2021/08/03 05:59:22;;;;;;;5.78;2.28;;;;;;;15.15;90.25;100682.09;3564957;40;20442;-45
2021/08/03 06:01:49;;;;;;;3.92;2.40;;;;;;;14.99;90.53;100674.25;3564782;40;20093;-46
2021/08/03 06:04:16;;;;;;;4.13;2.50;;;;;;;14.78;91.74;100658.59;3564888;40;20135;-45
2021/08/03 06:06:43;;;;;;;5.80;2.63;;;;;;;15.00;92.06;100672.53;3564858;40;20055;-48
2021/08/03 06:09:12;;;;;;;4.15;2.28;;;;;;;15.21;88.02;100669.25;3564916;40;20069;-45
2021/08/03 06:11:48;;;;;;;4.97;2.60;;;;;;;15.34;92.49;100677.91;3564739;40;20401;-45
2021/08/03 06:14:28;;;;;;;3.83;2.25;;;;;;;15.43;92.47;100680.53;3565063;40;20597;-45
2021/08/03 06:16:56;;;;;;;3.65;2.47;;;;;;;15.72;91.95;100685.91;3564740;40;20061;-47
2021/08/03 06:19:26;;;;;;;5.53;2.70;;;;;;;15.57;94.13;100689.22;3564677;40;20093;-50
2021/08/03 06:21:56;;;;;;;4.47;2.30;;;;;;;15.67;93.39;100692.78;3564632;40;20443;-47
2021/08/03 06:24:25;;;;;;;5.57;2.80;;;;;;;15.64;94.54;100693.59;3564651;40;20097;-50
2021/08/03 06:26:53;;;;;;;5.65;3.10;;;;;;;15.24;96.98;100687.31;3564739;40;20079;-45
2021/08/03 06:29:24;;;;;;;3.50;3.00;;;;;;;15.31;96.49;100680.50;3564732;40;20077;-44
2021/08/03 06:31:51;;;;;;;3.53;2.45;;;;;;;15.27;97.39;100701.09;3564827;40;20055;-45
2021/08/03 06:34:18;;;;;;;4.85;2.95;;;;;;;15.18;99.35;100692.44;3563990;40;20101;-44
2021/08/03 06:36:45;;;;;;;3.58;2.63;;;;;;;14.95;100.00;100697.44;3564652;40;20089;-44
2021/08/03 06:39:12;;;;;;;6.57;2.70;;;;;;;15.55;97.13;100696.09;3564451;40;20093;-44
2021/08/03 06:41:40;;;;;;;6.15;3.40;;;;;;;15.27;98.39;100701.09;3564786;40;20081;-44
2021/08/03 06:44:16;;;;;;;4.07;2.88;;;;;;;15.51;98.59;100697.81;3565000;40;20093;-44
2021/08/03 06:46:49;;;;;;;;;;;;;;;15.41;100.00;100688.28;3564909;40;20041;-44
2021/08/03 06:49:17;;;;;;;4.50;3.17;;;;;;;15.69;100.00;100693.63;3564535;40;19945;-45
2021/08/03 06:51:46;;;;;;;6.22;2.75;;;;;;;15.99;98.73;100703.22;3564407;40;20077;-48
2021/08/03 06:54:14;;;;;;;6.68;3.22;;;;;;;15.47;100.00;100700.34;3564460;40;20405;-44
2021/08/03 06:56:53;;;;;;;5.38;2.80;;;;;;;15.97;100.00;100697.19;3564586;40;20441;-44
2021/08/03 06:59:25;;;;;;;5.25;2.90;;;;;;;15.67;100.00;100701.38;3564512;40;20086;-44
2021/08/03 07:01:59;;;;;;;4.25;3.03;;;;;;;16.11;98.87;100698.09;3564529;40;20077;-50
2021/08/03 07:04:36;;;;;;;4.70;2.80;;;;;;;16.42;98.11;100698.19;3564851;40;20130;-44
2021/08/03 07:07:04;;;;;;;7.18;2.78;;;;;;;16.14;96.83;100692.94;3564612;40;20041;-44
2021/08/03 07:09:32;;;;;;;6.65;2.67;;;;;;;16.74;97.48;100690.50;3564520;40;20482;-46
2021/08/03 07:11:59;;;;;;;8.32;3.15;;;;;;;16.78;96.66;100693.09;3564286;40;20094;-46
2021/08/03 07:14:26;;;;;;;4.28;2.55;;;;;;;16.87;93.86;100697.41;3564217;40;20053;-44
2021/08/03 07:16:54;;;;;;;4.63;2.85;;;;;;;16.88;93.53;100699.13;3564807;40;20053;-44
2021/08/03 07:19:23;;;;;;;7.22;2.78;;;;;;;16.57;94.09;100697.34;3564431;40;20054;-46
2021/08/03 07:21:51;;;;;;;6.40;2.40;;;;;;;17.00;92.60;100691.34;3564257;40;20061;-44
2021/08/03 07:24:18;;;;;;;3.38;2.25;;;;;;;17.20;90.90;100698.25;3564427;40;20064;-44
2021/08/03 07:26:46;;;;;;;3.95;2.05;;;;;;;17.37;90.39;100693.03;3564199;40;20105;-45
2021/08/03 07:29:13;;;;;;;6.22;2.35;;;;;;;17.23;91.78;100698.22;3564004;40;20041;-46
2021/08/03 07:31:41;;;;;;;4.18;2.10;;;;;;;17.57;89.94;100701.63;3564527;40;20085;-45
2021/08/03 07:34:09;;;;;;;2.63;1.80;;;;;;;17.85;91.13;100705.00;3564254;40;20060;-44
2021/08/03 07:36:37;;;;;;;2.53;1.58;;;;;;;18.57;86.62;100705.44;3564274;40;20082;-47
2021/08/03 07:39:06;;;;;;;4.00;1.77;;;;;;;18.88;85.21;100710.44;3564264;40;20097;-46
2021/08/03 07:41:35;;;;;;;3.90;1.65;;;;;;;18.69;80.66;100709.75;3564382;40;20057;-45
2021/08/03 07:44:04;;;;;;;3.38;1.67;;;;;;;19.06;83.25;100705.09;3564016;40;20074;-44
2021/08/03 07:46:32;;;;;;;2.97;1.40;;;;;;;18.96;82.22;100708.66;3564905;40;20085;-44
2021/08/03 07:49:02;;;;;;;2.25;1.27;;;;;;;18.69;85.25;100699.38;3565465;40;20102;-47
2021/08/03 07:51:29;;;;;;;2.80;1.20;;;;;;;19.11;78.75;100710.25;3565811;40;20133;-44
2021/08/03 07:53:56;;;;;;;2.38;1.63;;;;;;;19.58;80.66;100698.53;3565578;40;20387;-46
2021/08/03 07:56:23;;;;;;;5.03;1.45;;;;;;;20.09;70.88;100698.78;3565463;40;20089;-44
2021/08/03 07:58:50;;;;;;;3.75;1.40;;;;;;;20.19;73.50;100694.31;3565896;40;20102;-47
2021/08/03 08:01:18;;;;;;;3.78;1.50;;;;;;;20.07;72.10;100695.38;3565685;40;20359;-44
2021/08/03 08:03:46;;;;;;;2.25;0.90;;;;;;;20.31;68.13;100702.81;3565832;40;20407;-48
2021/08/03 08:06:15;;;;;;;3.63;1.08;;;;;;;20.28;72.94;100702.84;3565796;40;20085;-47
2021/08/03 08:08:42;;;;;;;3.17;1.40;;;;;;;19.71;78.24;100699.28;3565326;40;20049;-44
2021/08/03 08:11:10;;;;;;;1.42;1.10;;;;;;;19.45;77.36;100704.72;3568012;40;20068;-47
2021/08/03 08:13:38;;;;;;;1.20;0.98;;;;;;;19.79;76.57;100702.66;3571023;40;20081;-44
2021/08/03 08:16:06;;;;;;;1.75;1.00;;;;;;;19.60;78.88;100702.00;3568056;40;20113;-45
2021/08/03 08:18:33;;;;;;;2.67;1.00;;;;;;;19.77;78.08;100700.06;3565461;40;20134;-46
2021/08/03 08:21:00;;;;;;;2.97;1.25;;;;;;;19.54;77.69;100702.88;3565647;40;20065;-44
2021/08/03 08:23:27;;;;;;;2.65;1.67;;;;;;;19.68;74.67;100699.31;3565419;40;20077;-45
2021/08/03 08:25:55;;;;;;;6.00;1.50;;;;;;;19.97;77.14;100698.97;3565321;40;20081;-47
2021/08/03 08:28:22;;;;;;;3.55;1.10;;;;;;;20.60;71.88;100699.81;3565426;40;20092;-44
2021/08/03 08:30:50;;;;;;;3.03;1.17;;;;;;;20.12;67.55;100695.31;3565524;40;20411;-44
2021/08/03 08:33:17;;;;;;;2.25;0.98;;;;;;;20.92;65.88;100700.19;3565448;40;20403;-44
2021/08/03 08:35:44;;;;;;;2.42;1.15;;;;;;;21.08;65.06;100699.91;3565720;40;20433;-44
2021/08/03 08:38:11;;;;;;;2.00;0.85;;;;;;;21.35;64.92;100693.38;3565308;40;20091;-44
2021/08/03 08:40:40;;;;;;;1.70;1.10;;;;;;;21.40;66.50;100695.00;3565475;40;20143;-44
2021/08/03 08:43:10;;;;;;;1.83;0.90;;;;;;;21.47;67.33;100701.84;3565713;40;20085;-45
2021/08/03 08:45:37;;;;;;;1.50;1.10;;;;;;;21.08;64.96;100689.50;3565279;40;20085;-48
2021/08/03 08:48:06;;;;;;;2.72;1.38;;;;;;;21.32;67.02;100690.81;3565486;40;20089;-46
2021/08/03 08:50:33;;;;;;;5.03;1.05;;;;;;;21.90;63.49;100691.41;3565490;40;20037;-44
2021/08/03 08:53:00;;;;;;;2.45;1.20;;;;;;;21.80;62.79;100692.50;3565333;40;20089;-46
2021/08/03 08:55:28;;;;;;;4.30;1.10;;;;;;;21.59;59.04;100694.66;3565337;40;20085;-43
2021/08/03 08:57:55;;;;;;;4.38;1.27;;;;;;;21.54;59.09;100686.06;3564896;40;20057;-44
2021/08/03 09:00:24;;;;;;;4.00;1.35;;;;;;;21.31;62.70;100688.25;3565259;40;20463;-44
2021/08/03 09:02:53;;;;;;;3.17;1.40;;;;;;;20.45;63.67;100681.81;3565095;40;20073;-47
2021/08/03 09:05:37;;;;;;;3.13;1.05;;;;;;;20.80;65.17;100683.91;3565469;40;20049;-44
2021/08/03 09:08:05;;;;;;;2.30;1.10;;;;;;;21.08;62.99;100686.03;3565454;40;20072;-44
2021/08/03 09:10:32;;;;;;;3.65;1.33;;;;;;;21.60;62.98;100685.94;3565701;40;20109;-44
2021/08/03 09:13:04;;;;;;;5.40;1.52;;;;;;;21.03;64.52;100673.09;3565465;40;20451;-44
2021/08/03 09:15:32;;;;;;;3.40;1.20;;;;;;;21.90;59.40;100687.94;3565275;40;20089;-48
2021/08/03 09:18:11;;;;;;;2.33;0.75;;;;;;;21.82;61.96;100681.16;3565204;40;20085;-44
2021/08/03 09:20:40;;;;;;;2.88;0.88;;;;;;;21.41;59.24;100676.78;3565705;40;20056;-46
2021/08/03 09:23:08;;;;;;;3.70;1.13;;;;;;;21.63;61.01;100687.63;3565218;40;20049;-47
2021/08/03 09:25:36;;;;;;;2.78;1.10;;;;;;;21.93;59.74;100686.13;3565122;40;20081;-44
2021/08/03 09:28:08;;;;;;;1.92;1.23;;;;;;;21.93;57.26;100688.75;3565001;40;20078;-45
2021/08/03 09:30:37;;;;;;;4.30;1.10;;;;;;;22.03;61.58;100678.97;3565496;40;20077;-48
2021/08/03 09:33:06;;;;;;;2.65;1.30;;;;;;;22.77;58.17;100688.59;3565149;40;20081;-44
2021/08/03 09:35:34;;;;;;;1.98;0.98;;;;;;;22.61;54.68;100683.75;3565118;40;20093;-44
2021/08/03 09:38:01;;;;;;;2.08;1.10;;;;;;;22.25;60.61;100685.47;3565164;40;20045;-44
2021/08/03 09:40:34;;;;;;;1.58;1.33;;;;;;;22.83;54.73;100689.31;3565004;40;20073;-44
2021/08/03 09:43:05;;;;;;;4.95;1.35;;;;;;;21.85;57.96;100675.00;3565326;40;20069;-46
2021/08/03 09:45:35;;;;;;;3.60;1.60;;;;;;;22.24;59.88;100677.69;3565209;40;20089;-46
2021/08/03 09:48:17;;;;;;;2.85;0.90;;;;;;;22.72;55.70;100683.47;3564891;40;20088;-47
2021/08/03 09:51:02;;;;;;;2.05;1.42;;;;;;;22.63;51.48;100673.25;3565110;40;20081;-47
2021/08/03 09:53:41;;;;;;;1.95;1.35;;;;;;;23.11;51.34;100683.41;3564911;40;20071;-45
2021/08/03 09:56:14;;;;;;;4.07;0.90;;;;;;;23.60;49.24;100682.06;3565076;40;20081;-48
2021/08/03 09:59:00;;;;;;;1.55;1.10;;;;;;;23.96;48.93;100677.56;3564718;40;20085;-47
2021/08/03 10:01:50;;;;;;;2.70;1.02;;;;;;;23.16;48.22;100675.44;3565073;40;20079;-45
2021/08/03 10:04:17;;;;;;;4.90;1.13;;;;;;;25.01;44.84;100683.81;3564807;40;20411;-44
2021/08/03 10:06:45;;;;;;;1.65;0.90;;;;;;;26.07;43.36;100686.13;3564950;40;20065;-44
2021/08/03 10:09:12;;;;;;;2.20;1.00;;;;;;;27.04;41.56;100690.97;3564728;40;20109;-47
2021/08/03 10:11:39;;;;;;;3.33;0.90;;;;;;;28.39;37.41;100683.13;3565067;40;20090;-49
2021/08/03 10:14:24;;;;;;;3.05;1.17;;;;;;;28.63;39.25;100683.69;3564549;40;20046;-46
2021/08/03 10:16:53;;;;;;;2.10;0.98;;;;;;;30.42;32.88;100686.56;3565091;40;20087;-48
2021/08/03 10:19:28;;;;;;;2.85;1.17;;;;;;;29.23;34.60;100685.97;3564843;40;20077;-46
2021/08/03 10:22:11;;;;;;;1.90;1.10;;;;;;;28.21;36.50;100683.97;3564681;40;20338;-47
2021/08/03 10:24:42;;;;;;;3.20;1.10;;;;;;;28.65;36.66;100675.72;3565159;40;20056;-46
2021/08/03 10:27:13;;;;;;;2.03;0.85;;;;;;;29.93;33.12;100674.28;3564953;40;20338;-45
2021/08/03 10:29:40;;;;;;;2.65;1.30;;;;;;;30.57;33.52;100677.75;3564668;40;20081;-46
2021/08/03 10:32:43;;;;;;;2.72;1.15;;;;;;;30.44;33.91;100677.59;3565276;40;20397;-47
2021/08/03 10:35:18;;;;;;;1.63;1.50;;;;;;;32.01;31.78;100684.06;3565034;40;20044;-51
2021/08/03 10:37:57;;;;;;;2.28;1.15;;;;;;;33.35;29.61;100683.06;3564677;40;20434;-44
2021/08/03 10:40:49;;;;;;;4.93;1.85;;;;;;;33.76;26.83;100684.63;3564910;40;20093;-45
2021/08/03 10:43:20;;;;;;;3.10;1.02;;;;;;;30.60;31.73;100674.06;3564778;40;20066;-51
2021/08/03 10:46:09;;;;;;;2.53;1.10;;;;;;;29.90;32.92;100668.31;3565115;40;20317;-45
2021/08/03 10:48:39;;;;;;;3.20;1.48;;;;;;;28.99;33.67;100660.88;3564913;40;20054;-47
2021/08/03 10:51:15;;;;;;;2.40;1.25;;;;;;;31.10;31.57;100676.38;3565206;40;20399;-49
2021/08/03 10:54:05;;;;;;;3.13;1.27;;;;;;;31.00;31.34;100675.25;3564841;40;20763;-47
2021/08/03 10:56:57;;;;;;;3.08;1.40;;;;;;;28.57;33.31;100660.31;3564704;40;20045;-48
2021/08/03 10:59:38;;;;;;;4.47;1.50;;;;;;;26.84;37.60;100651.53;3564977;40;20049;-49
2021/08/03 11:02:29;;;;;;;2.05;1.35;;;;;;;28.14;35.47;100645.69;3565512;40;20069;-47
2021/08/03 11:04:58;;;;;;;2.67;1.20;;;;;;;30.99;30.44;100660.31;3564994;40;20041;-49
2021/08/03 11:07:25;;;;;;;2.38;1.30;;;;;;;30.78;31.07;100654.50;3566329;40;20053;-48
2021/08/03 11:09:59;;;;;;;3.00;1.58;;;;;;;31.47;30.11;100657.44;3568570;40;20049;-48
2021/08/03 11:12:56;;;;;;;2.83;1.00;;;;;;;33.67;27.46;100656.91;3564635;40;20073;-48
2021/08/03 11:15:23;;;;;;;1.98;1.25;;;;;;;29.98;32.76;100637.06;3563908;40;20089;-49
2021/08/03 11:17:53;;;;;;;1.65;1.38;;;;;;;30.89;30.74;100644.16;3564304;40;20089;-47
2021/08/03 11:20:36;;;;;;;3.92;1.40;;;;;;;31.52;30.28;100653.56;3563669;40;20045;-50
2021/08/03 11:23:08;;;;;;;2.35;1.27;;;;;;;33.19;27.09;100646.13;3564192;40;20062;-50
2021/08/03 11:25:35;;;;;;;1.15;1.00;;;;;;;34.12;26.95;100648.41;3564705;40;20093;-49
2021/08/03 11:28:16;;;;;;;4.20;1.23;;;;;;;33.76;28.84;100643.94;3564222;40;20089;-47
2021/08/03 11:30:45;;;;;;;4.13;1.25;;;;;;;33.52;27.87;100643.88;3564119;40;20435;-48
2021/08/03 11:33:14;;;;;;;2.22;1.40;;;;;;;33.24;27.45;100629.88;3564481;40;20072;-46
2021/08/03 11:35:42;;;;;;;2.45;1.08;;;;;;;33.29;26.99;100638.34;3564424;40;20355;-51
2021/08/03 11:38:12;;;;;;;2.65;1.38;;;;;;;33.33;27.94;100633.69;3564206;40;20089;-49
2021/08/03 11:40:41;;;;;;;3.42;1.10;;;;;;;34.45;26.85;100629.06;3564194;40;20430;-49